createdAt,value
2022-07-30T00:00:07.424Z,0.00
2022-07-30T00:01:07.536Z,0.00
2022-07-30T00:02:07.377Z,0.00
2022-07-30T00:03:07.416Z,0.00
2022-07-30T00:04:07.531Z,0.00
2022-07-30T00:05:07.368Z,0.00
2022-07-30T00:06:07.337Z,0.00
2022-07-30T00:07:09.273Z,0.00
2022-07-30T00:08:07.392Z,0.00
2022-07-30T00:09:07.309Z,0.00
2022-07-30T00:10:07.278Z,0.00
2022-07-30T00:11:07.319Z,0.00
2022-07-30T00:12:07.347Z,0.00
2022-07-30T00:13:07.269Z,0.00
2022-07-30T00:14:07.231Z,0.00
2022-07-30T00:15:07.211Z,0.00
2022-07-30T00:16:07.210Z,0.00
2022-07-30T00:17:07.268Z,0.00
2022-07-30T00:18:07.197Z,0.00
2022-07-30T00:19:07.183Z,0.00
2022-07-30T00:20:07.148Z,0.00
2022-07-30T00:21:07.177Z,0.00
2022-07-30T00:22:07.113Z,0.00
2022-07-30T00:23:07.142Z,0.00
2022-07-30T00:24:07.120Z,0.00
2022-07-30T00:25:07.073Z,0.00
2022-07-30T00:26:07.231Z,0.00
2022-07-30T00:27:07.072Z,0.00
2022-07-30T00:28:07.033Z,0.00
2022-07-30T00:29:07.024Z,0.00
2022-07-30T00:30:07.147Z,0.00
2022-07-30T00:31:08.285Z,0.00
2022-07-30T00:32:07.290Z,0.00
2022-07-30T00:33:08.091Z,0.00
2022-07-30T00:34:06.976Z,0.00
2022-07-30T00:35:07.057Z,0.00
2022-07-30T00:36:06.933Z,0.00
2022-07-30T00:37:06.937Z,0.00
2022-07-30T00:38:06.903Z,0.00
2022-07-30T00:39:06.893Z,0.00
2022-07-30T00:40:06.958Z,0.00
2022-07-30T00:41:06.890Z,0.00
2022-07-30T00:42:06.939Z,0.00
2022-07-30T00:43:06.904Z,0.00
2022-07-30T00:44:06.825Z,0.00
2022-07-30T00:45:06.917Z,0.00
2022-07-30T00:46:06.933Z,0.00
2022-07-30T00:47:06.829Z,0.00
2022-07-30T00:48:06.819Z,0.00
2022-07-30T00:49:06.860Z,0.00
2022-07-30T00:50:06.802Z,0.00
2022-07-30T00:51:07.771Z,0.00
2022-07-30T00:52:06.762Z,0.00
2022-07-30T00:53:06.770Z,0.00
2022-07-30T00:54:06.711Z,0.00
2022-07-30T00:55:06.768Z,0.00
2022-07-30T00:56:06.692Z,0.00
2022-07-30T00:57:06.674Z,0.00
2022-07-30T00:58:07.059Z,0.00
2022-07-30T00:59:06.702Z,0.00
2022-07-30T01:00:06.623Z,0.00
2022-07-30T01:01:06.647Z,0.00
2022-07-30T01:02:06.809Z,0.00
2022-07-30T01:03:06.577Z,0.00
2022-07-30T01:04:06.679Z,0.00
2022-07-30T01:05:06.604Z,0.00
2022-07-30T01:06:06.565Z,0.00
2022-07-30T01:07:07.576Z,0.00
2022-07-30T01:08:06.505Z,0.00
2022-07-30T01:09:06.493Z,0.00
2022-07-30T01:10:08.048Z,0.00
2022-07-30T01:11:06.617Z,0.00
2022-07-30T01:12:06.527Z,0.00
2022-07-30T01:13:06.478Z,0.00
2022-07-30T01:14:06.499Z,0.00
2022-07-30T01:15:06.476Z,0.00
2022-07-30T01:16:06.520Z,0.00
2022-07-30T01:17:06.404Z,0.00
2022-07-30T01:18:06.390Z,0.00
2022-07-30T01:19:06.373Z,0.00
2022-07-30T01:20:06.367Z,0.00
2022-07-30T01:21:06.418Z,0.00
2022-07-30T01:22:06.322Z,0.00
2022-07-30T01:23:06.509Z,0.00
2022-07-30T01:24:06.541Z,0.00
2022-07-30T01:25:06.288Z,0.00
2022-07-30T01:26:06.258Z,0.00
2022-07-30T01:27:06.248Z,0.00
2022-07-30T01:28:06.239Z,0.00
2022-07-30T01:29:06.224Z,0.00
2022-07-30T01:30:06.223Z,0.00
2022-07-30T01:31:06.202Z,0.00
2022-07-30T01:32:06.237Z,0.00
2022-07-30T01:33:06.364Z,0.00
2022-07-30T01:34:06.175Z,0.00
2022-07-30T01:35:06.183Z,0.00
2022-07-30T01:36:06.953Z,0.00
2022-07-30T01:37:06.145Z,0.00
2022-07-30T01:38:06.095Z,0.00
2022-07-30T01:39:06.835Z,0.00
2022-07-30T01:40:06.111Z,0.00
2022-07-30T01:41:06.060Z,0.00
2022-07-30T01:42:06.108Z,0.00
2022-07-30T01:43:06.024Z,0.00
2022-07-30T01:44:06.118Z,0.00
2022-07-30T01:45:06.034Z,0.00
2022-07-30T01:46:06.204Z,0.00
2022-07-30T01:47:06.203Z,0.00
2022-07-30T01:48:06.097Z,0.00
2022-07-30T01:49:06.937Z,0.00
2022-07-30T01:50:05.933Z,0.00
2022-07-30T01:51:06.949Z,0.00
2022-07-30T01:52:05.961Z,0.00
2022-07-30T01:53:05.941Z,0.00
2022-07-30T01:54:06.931Z,0.00
2022-07-30T01:55:05.898Z,0.00
2022-07-30T01:56:06.990Z,0.00
2022-07-30T01:57:05.867Z,0.00
2022-07-30T01:58:05.920Z,0.00
2022-07-30T01:59:05.832Z,0.00
2022-07-30T02:00:05.874Z,0.00
2022-07-30T02:01:06.283Z,0.00
2022-07-30T02:02:05.872Z,0.00
2022-07-30T02:03:05.823Z,0.00
2022-07-30T02:04:05.753Z,0.00
2022-07-30T02:05:05.742Z,0.00
2022-07-30T02:06:05.740Z,0.00
2022-07-30T02:07:05.751Z,0.00
2022-07-30T02:08:05.698Z,0.00
2022-07-30T02:09:07.011Z,0.00
2022-07-30T02:10:06.695Z,0.00
2022-07-30T02:11:05.654Z,0.00
2022-07-30T02:12:05.667Z,0.00
2022-07-30T02:13:05.898Z,0.00
2022-07-30T02:14:06.210Z,0.00
2022-07-30T02:15:05.605Z,0.00
2022-07-30T02:16:05.677Z,0.00
2022-07-30T02:17:05.623Z,0.00
2022-07-30T02:18:05.587Z,0.00
2022-07-30T02:19:06.185Z,0.00
2022-07-30T02:20:09.610Z,0.00
2022-07-30T02:21:07.317Z,0.00
2022-07-30T02:22:05.521Z,0.00
2022-07-30T02:23:05.558Z,0.00
2022-07-30T02:24:05.513Z,0.00
2022-07-30T02:25:05.489Z,0.00
2022-07-30T02:26:05.511Z,0.00
2022-07-30T02:27:05.469Z,0.00
2022-07-30T02:28:05.470Z,0.00
2022-07-30T02:29:09.498Z,0.00
2022-07-30T02:30:06.388Z,0.00
2022-07-30T02:31:17.271Z,0.00
2022-07-30T02:32:06.385Z,0.00
2022-07-30T02:33:05.363Z,0.00
2022-07-30T02:34:05.381Z,0.00
2022-07-30T02:35:05.325Z,0.00
2022-07-30T02:36:05.373Z,0.00
2022-07-30T02:37:06.373Z,0.00
2022-07-30T02:38:05.367Z,0.00
2022-07-30T02:39:05.273Z,0.00
2022-07-30T02:40:06.095Z,0.00
2022-07-30T02:41:05.261Z,0.00
2022-07-30T02:42:05.263Z,0.00
2022-07-30T02:43:05.289Z,0.00
2022-07-30T02:44:05.266Z,0.00
2022-07-30T02:45:05.226Z,0.00
2022-07-30T02:46:05.235Z,0.00
2022-07-30T02:47:05.295Z,0.00
2022-07-30T02:48:05.168Z,0.00
2022-07-30T02:49:05.208Z,0.00
2022-07-30T02:50:05.123Z,0.00
2022-07-30T02:51:05.114Z,0.00
2022-07-30T02:52:05.215Z,0.00
2022-07-30T02:53:05.127Z,0.00
2022-07-30T02:54:05.207Z,0.00
2022-07-30T02:55:05.140Z,0.00
2022-07-30T02:56:05.075Z,0.00
2022-07-30T02:57:05.178Z,0.00
2022-07-30T02:58:05.025Z,0.00
2022-07-30T02:59:05.146Z,0.00
2022-07-30T03:00:05.035Z,0.00
2022-07-30T03:01:05.062Z,0.00
2022-07-30T03:02:05.025Z,0.00
2022-07-30T03:03:04.946Z,0.00
2022-07-30T03:04:05.040Z,0.00
2022-07-30T03:05:05.097Z,0.00
2022-07-30T03:06:04.931Z,0.00
2022-07-30T03:07:08.068Z,4.00
2022-07-30T03:08:04.910Z,4.00
2022-07-30T03:09:04.872Z,0.00
2022-07-30T03:10:04.956Z,0.00
2022-07-30T03:11:04.968Z,4.00
2022-07-30T03:12:04.830Z,4.00
2022-07-30T03:13:04.846Z,4.00
2022-07-30T03:14:04.878Z,4.00
2022-07-30T03:15:05.044Z,8.00
2022-07-30T03:16:04.827Z,4.00
2022-07-30T03:17:04.766Z,8.00
2022-07-30T03:18:04.854Z,8.00
2022-07-30T03:19:05.197Z,8.00
2022-07-30T03:20:04.751Z,12.00
2022-07-30T03:21:04.776Z,12.00
2022-07-30T03:22:04.721Z,12.00
2022-07-30T03:23:04.729Z,12.00
2022-07-30T03:24:04.745Z,16.00
2022-07-30T03:25:04.659Z,16.00
2022-07-30T03:26:04.701Z,20.00
2022-07-30T03:27:04.670Z,24.00
2022-07-30T03:28:04.631Z,28.00
2022-07-30T03:29:04.645Z,28.00
2022-07-30T03:30:04.696Z,32.00
2022-07-30T03:31:04.628Z,36.00
2022-07-30T03:32:04.572Z,40.00
2022-07-30T03:33:04.638Z,44.00
2022-07-30T03:34:04.542Z,48.00
2022-07-30T03:35:06.614Z,52.00
2022-07-30T03:36:04.567Z,56.00
2022-07-30T03:37:04.522Z,60.00
2022-07-30T03:38:04.571Z,64.00
2022-07-30T03:39:04.462Z,72.00
2022-07-30T03:40:04.544Z,76.00
2022-07-30T03:41:04.503Z,76.00
2022-07-30T03:42:04.522Z,84.00
2022-07-30T03:43:04.455Z,84.00
2022-07-30T03:44:05.484Z,92.00
2022-07-30T03:45:04.397Z,92.00
2022-07-30T03:46:04.595Z,96.00
2022-07-30T03:47:05.223Z,104.00
2022-07-30T03:48:04.353Z,108.00
2022-07-30T03:49:04.403Z,120.00
2022-07-30T03:50:04.358Z,128.00
2022-07-30T03:51:04.335Z,136.00
2022-07-30T03:52:04.327Z,144.00
2022-07-30T03:53:04.289Z,152.00
2022-07-30T03:54:04.285Z,160.00
2022-07-30T03:55:05.552Z,164.00
2022-07-30T03:56:04.308Z,164.00
2022-07-30T03:57:04.269Z,164.00
2022-07-30T03:58:04.370Z,156.00
2022-07-30T03:59:04.351Z,148.00
2022-07-30T04:00:04.238Z,140.00
2022-07-30T04:01:04.191Z,132.00
2022-07-30T04:02:07.277Z,124.00
2022-07-30T04:03:04.395Z,120.00
2022-07-30T04:04:04.238Z,120.00
2022-07-30T04:05:04.209Z,116.00
2022-07-30T04:06:04.151Z,120.00
2022-07-30T04:07:04.417Z,124.00
2022-07-30T04:08:04.261Z,124.00
2022-07-30T04:09:05.573Z,132.00
2022-07-30T04:10:04.071Z,136.00
2022-07-30T04:11:04.082Z,140.00
2022-07-30T04:12:04.226Z,144.00
2022-07-30T04:13:09.206Z,152.00
2022-07-30T04:14:05.094Z,160.00
2022-07-30T04:16:05.080Z,172.00
2022-07-30T04:16:41.132Z,180.00
2022-07-30T04:17:05.474Z,192.00
2022-07-30T04:18:03.962Z,204.00
2022-07-30T04:19:04.026Z,220.00
2022-07-30T04:20:04.037Z,236.00
2022-07-30T04:21:03.935Z,256.00
2022-07-30T04:22:03.933Z,280.00
2022-07-30T04:23:03.942Z,296.00
2022-07-30T04:24:05.661Z,316.00
2022-07-30T04:25:03.978Z,336.00
2022-07-30T04:26:03.896Z,348.00
2022-07-30T04:27:04.285Z,360.00
2022-07-30T04:28:04.079Z,368.00
2022-07-30T04:29:03.823Z,380.00
2022-07-30T04:30:03.834Z,400.00
2022-07-30T04:31:03.957Z,428.00
2022-07-30T04:32:03.778Z,468.00
2022-07-30T04:33:03.770Z,508.00
2022-07-30T04:34:04.764Z,560.00
2022-07-30T04:35:03.801Z,612.00
2022-07-30T04:36:03.860Z,664.00
2022-07-30T04:37:04.118Z,704.00
2022-07-30T04:38:03.735Z,756.00
2022-07-30T04:39:03.692Z,816.00
2022-07-30T04:40:03.701Z,884.00
2022-07-30T04:41:03.678Z,948.00
2022-07-30T04:42:03.684Z,1008.00
2022-07-30T04:43:03.656Z,1072.00
2022-07-30T04:44:03.643Z,1128.00
2022-07-30T04:45:03.653Z,1180.00
2022-07-30T04:46:03.666Z,1244.00
2022-07-30T04:47:04.655Z,1320.00
2022-07-30T04:48:03.663Z,1392.00
2022-07-30T04:49:03.670Z,1468.00
2022-07-30T04:50:03.593Z,1560.00
2022-07-30T04:51:03.536Z,1640.00
2022-07-30T04:52:03.517Z,1736.00
2022-07-30T04:53:03.575Z,1856.00
2022-07-30T04:54:03.499Z,1996.00
2022-07-30T04:55:03.515Z,2156.00
2022-07-30T04:56:03.517Z,2332.00
2022-07-30T04:57:03.862Z,2512.00
2022-07-30T04:58:03.449Z,2704.00
2022-07-30T04:59:03.460Z,2904.00
2022-07-30T05:00:03.445Z,3100.00
2022-07-30T05:01:03.409Z,3292.00
2022-07-30T05:02:03.416Z,3496.00
2022-07-30T05:03:03.389Z,3696.00
2022-07-30T05:04:03.358Z,3888.00
2022-07-30T05:05:03.425Z,4064.00
2022-07-30T05:06:03.443Z,4228.00
2022-07-30T05:07:03.807Z,4380.00
2022-07-30T05:08:03.324Z,4528.00
2022-07-30T05:09:03.333Z,4672.00
2022-07-30T05:10:03.290Z,4816.00
2022-07-30T05:11:03.365Z,4960.00
2022-07-30T05:12:03.261Z,5108.00
2022-07-30T05:13:03.253Z,5272.00
2022-07-30T05:14:03.232Z,5476.00
2022-07-30T05:15:03.227Z,5700.00
2022-07-30T05:16:03.420Z,5924.00
2022-07-30T05:17:03.650Z,6132.00
2022-07-30T05:18:03.212Z,6316.00
2022-07-30T05:19:07.675Z,6492.00
2022-07-30T05:20:03.161Z,6656.00
2022-07-30T05:21:03.178Z,6808.00
2022-07-30T05:22:06.587Z,6976.00
2022-07-30T05:23:03.167Z,7164.00
2022-07-30T05:24:03.174Z,7388.00
2022-07-30T05:25:03.144Z,7640.00
2022-07-30T05:26:04.610Z,7920.00
2022-07-30T05:27:03.630Z,8216.00
2022-07-30T05:28:03.048Z,8516.00
2022-07-30T05:29:04.083Z,8800.00
2022-07-30T05:30:03.109Z,9068.00
2022-07-30T05:31:03.070Z,9316.00
2022-07-30T05:32:04.087Z,9552.00
2022-07-30T05:33:03.638Z,9772.00
2022-07-30T05:34:04.037Z,9980.00
2022-07-30T05:35:02.981Z,10168.00
2022-07-30T05:36:02.951Z,10320.00
2022-07-30T05:37:03.435Z,10456.00
2022-07-30T05:38:03.859Z,10592.00
2022-07-30T05:39:02.932Z,10720.00
2022-07-30T05:40:03.726Z,10852.00
2022-07-30T05:41:02.891Z,10968.00
2022-07-30T05:42:02.880Z,11076.00
2022-07-30T05:43:02.861Z,11172.00
2022-07-30T05:44:02.856Z,11252.00
2022-07-30T05:45:02.887Z,11292.00
2022-07-30T05:46:02.843Z,11292.00
2022-07-30T05:47:03.106Z,11328.00
2022-07-30T05:48:02.872Z,11332.00
2022-07-30T05:49:02.982Z,11132.00
2022-07-30T05:50:05.042Z,10808.00
2022-07-30T05:51:04.727Z,10540.00
2022-07-30T05:52:02.754Z,10368.00
2022-07-30T05:53:02.758Z,10280.00
2022-07-30T05:54:02.722Z,10268.00
2022-07-30T05:55:02.714Z,10392.00
2022-07-30T05:56:02.702Z,10676.00
2022-07-30T05:57:03.037Z,11044.00
2022-07-30T05:58:02.659Z,11416.00
2022-07-30T05:59:02.666Z,11724.00
2022-07-30T06:00:02.647Z,11976.00
2022-07-30T06:01:02.618Z,12204.00
2022-07-30T06:02:02.649Z,12380.00
2022-07-30T06:03:02.571Z,12504.00
2022-07-30T06:04:02.755Z,12556.00
2022-07-30T06:05:02.637Z,12512.00
2022-07-30T06:06:02.610Z,12380.00
2022-07-30T06:07:03.431Z,12164.00
2022-07-30T06:08:02.529Z,11820.00
2022-07-30T06:09:02.532Z,11400.00
2022-07-30T06:10:02.557Z,10984.00
2022-07-30T06:11:02.531Z,10592.00
2022-07-30T06:12:02.461Z,10232.00
2022-07-30T06:13:02.492Z,9968.00
2022-07-30T06:14:02.491Z,9820.00
2022-07-30T06:15:02.476Z,9740.00
2022-07-30T06:16:03.379Z,9700.00
2022-07-30T06:17:02.892Z,9620.00
2022-07-30T06:18:02.634Z,9420.00
2022-07-30T06:19:02.395Z,9168.00
2022-07-30T06:20:02.386Z,9028.00
2022-07-30T06:21:02.368Z,9132.00
2022-07-30T06:22:06.782Z,9516.00
2022-07-30T06:23:02.396Z,10228.00
2022-07-30T06:24:02.303Z,11336.00
2022-07-30T06:25:02.337Z,12080.00
2022-07-30T06:26:02.375Z,12308.00
2022-07-30T06:27:02.513Z,12280.00
2022-07-30T06:28:15.610Z,12372.00
2022-07-30T06:29:04.089Z,12628.00
2022-07-30T06:30:02.278Z,13056.00
2022-07-30T06:31:02.379Z,13624.00
2022-07-30T06:32:02.238Z,14124.00
2022-07-30T06:33:02.246Z,14444.00
2022-07-30T06:34:02.181Z,14660.00
2022-07-30T06:35:04.834Z,14868.00
2022-07-30T06:36:02.231Z,14892.00
2022-07-30T06:37:02.613Z,14900.00
2022-07-30T06:38:07.658Z,14864.00
2022-07-30T06:39:04.152Z,14824.00
2022-07-30T06:40:02.282Z,14644.00
2022-07-30T06:41:04.480Z,14420.00
2022-07-30T06:42:03.205Z,14172.00
2022-07-30T06:43:02.062Z,13848.00
2022-07-30T06:44:02.064Z,13368.00
2022-07-30T06:45:02.064Z,13024.00
2022-07-30T06:46:02.257Z,12932.00
2022-07-30T06:47:07.227Z,12888.00
2022-07-30T06:48:03.112Z,13068.00
2022-07-30T06:49:02.050Z,13452.00
2022-07-30T06:50:01.961Z,13796.00
2022-07-30T06:51:02.099Z,13892.00
2022-07-30T06:52:01.931Z,13560.00
2022-07-30T06:53:02.014Z,12756.00
2022-07-30T06:54:02.705Z,11836.00
2022-07-30T06:55:03.127Z,10936.00
2022-07-30T06:56:01.909Z,9992.00
2022-07-30T06:57:02.235Z,9252.00
2022-07-30T06:58:01.902Z,8720.00
2022-07-30T06:59:02.009Z,8492.00
2022-07-30T07:00:02.337Z,8324.00
2022-07-30T07:01:03.107Z,8184.00
2022-07-30T07:02:02.818Z,8268.00
2022-07-30T07:03:01.908Z,8292.00
2022-07-30T07:04:01.878Z,8316.00
2022-07-30T07:05:01.765Z,8472.00
2022-07-30T07:06:01.909Z,8656.00
2022-07-30T07:07:02.229Z,8836.00
2022-07-30T07:08:02.739Z,9140.00
2022-07-30T07:09:01.803Z,9252.00
2022-07-30T07:10:01.697Z,9416.00
2022-07-30T07:11:01.691Z,9432.00
2022-07-30T07:12:01.681Z,9324.00
2022-07-30T07:13:01.674Z,9168.00
2022-07-30T07:14:04.720Z,9060.00
2022-07-30T07:15:01.703Z,9044.00
2022-07-30T07:16:01.643Z,9004.00
2022-07-30T07:17:02.026Z,8908.00
2022-07-30T07:18:02.319Z,8928.00
2022-07-30T07:19:01.705Z,9112.00
2022-07-30T07:20:02.760Z,9384.00
2022-07-30T07:21:01.734Z,9532.00
2022-07-30T07:22:01.578Z,9576.00
2022-07-30T07:23:05.218Z,9532.00
2022-07-30T07:24:02.667Z,9528.00
2022-07-30T07:25:01.572Z,9824.00
2022-07-30T07:26:01.521Z,9900.00
2022-07-30T07:27:01.963Z,10148.00
2022-07-30T07:28:11.826Z,10444.00
2022-07-30T07:29:05.262Z,10796.00
2022-07-30T07:30:06.024Z,11188.00
2022-07-30T07:31:01.583Z,11628.00
2022-07-30T07:32:07.208Z,12112.00
2022-07-30T07:33:02.399Z,12580.00
2022-07-30T07:34:01.412Z,13104.00
2022-07-30T07:35:01.412Z,13608.00
2022-07-30T07:36:01.424Z,14088.00
2022-07-30T07:37:01.692Z,14540.00
2022-07-30T07:38:01.370Z,14960.00
2022-07-30T07:39:01.343Z,15456.00
2022-07-30T07:40:01.350Z,15936.00
2022-07-30T07:41:01.334Z,16064.00
2022-07-30T07:42:01.353Z,16000.00
2022-07-30T07:43:01.283Z,15680.00
2022-07-30T07:44:01.326Z,15156.00
2022-07-30T07:45:01.293Z,14768.00
2022-07-30T07:46:01.299Z,14460.00
2022-07-30T07:47:01.551Z,14300.00
2022-07-30T07:48:01.215Z,14072.00
2022-07-30T07:49:01.272Z,13800.00
2022-07-30T07:50:01.240Z,13444.00
2022-07-30T07:51:01.228Z,13016.00
2022-07-30T07:52:01.200Z,12524.00
2022-07-30T07:53:01.154Z,12032.00
2022-07-30T07:54:20.516Z,11588.00
2022-07-30T07:55:02.177Z,11140.00
2022-07-30T07:56:01.160Z,10760.00
2022-07-30T07:57:02.453Z,10396.00
2022-07-30T07:58:01.080Z,10052.00
2022-07-30T07:59:01.245Z,9712.00
2022-07-30T08:00:01.118Z,9400.00
2022-07-30T08:01:01.188Z,9120.00
2022-07-30T08:02:03.330Z,8872.00
2022-07-30T08:03:01.023Z,8632.00
2022-07-30T08:04:01.037Z,8356.00
2022-07-30T08:05:00.993Z,8056.00
2022-07-30T08:06:06.235Z,7756.00
2022-07-30T08:07:02.343Z,7484.00
2022-07-30T08:08:01.004Z,7240.00
2022-07-30T08:09:00.995Z,7040.00
2022-07-30T08:10:00.934Z,6904.00
2022-07-30T08:11:01.063Z,6788.00
2022-07-30T08:12:00.894Z,6688.00
2022-07-30T08:13:00.898Z,6596.00
2022-07-30T08:14:00.908Z,6520.00
2022-07-30T08:15:00.858Z,6456.00
2022-07-30T08:16:00.857Z,6400.00
2022-07-30T08:17:01.330Z,6356.00
2022-07-30T08:18:00.848Z,6308.00
2022-07-30T08:19:00.808Z,6260.00
2022-07-30T08:20:00.810Z,6220.00
2022-07-30T08:21:00.911Z,6192.00
2022-07-30T08:22:01.042Z,6152.00
2022-07-30T08:23:00.791Z,6112.00
2022-07-30T08:24:00.747Z,6084.00
2022-07-30T08:25:00.750Z,6060.00
2022-07-30T08:26:00.812Z,6048.00
2022-07-30T08:27:00.942Z,6040.00
2022-07-30T08:28:00.702Z,6032.00
2022-07-30T08:29:00.711Z,6032.00
2022-07-30T08:30:00.653Z,6032.00
2022-07-30T08:31:02.545Z,6032.00
2022-07-30T08:32:00.895Z,6044.00
2022-07-30T08:33:00.604Z,6048.00
2022-07-30T08:34:00.634Z,6060.00
2022-07-30T08:35:00.615Z,6068.00
2022-07-30T08:36:03.013Z,6084.00
2022-07-30T08:37:00.635Z,6088.00
2022-07-30T08:38:00.586Z,6088.00
2022-07-30T08:39:00.543Z,6084.00
2022-07-30T08:40:00.562Z,6088.00
2022-07-30T08:41:00.510Z,6112.00
2022-07-30T08:42:00.969Z,6144.00
2022-07-30T08:43:00.505Z,6188.00
2022-07-30T08:44:00.477Z,6220.00
2022-07-30T08:45:00.459Z,6224.00
2022-07-30T08:46:00.493Z,6152.00
2022-07-30T08:47:00.779Z,6176.00
2022-07-30T08:48:00.425Z,6216.00
2022-07-30T08:49:07.744Z,6236.00
2022-07-30T08:50:01.425Z,6496.00
2022-07-30T08:51:00.432Z,7468.00
2022-07-30T08:52:00.732Z,9248.00
2022-07-30T08:53:00.346Z,9772.00
2022-07-30T08:54:00.364Z,9840.00
2022-07-30T08:55:00.351Z,9784.00
2022-07-30T08:56:00.324Z,9492.00
2022-07-30T08:57:00.302Z,9136.00
2022-07-30T08:58:00.284Z,8928.00
2022-07-30T08:59:00.351Z,8860.00
2022-07-30T09:00:01.792Z,8976.00
2022-07-30T09:01:00.658Z,9116.00
2022-07-30T09:02:00.735Z,9160.00
2022-07-30T09:03:00.232Z,9180.00
2022-07-30T09:04:00.296Z,9284.00
2022-07-30T09:05:00.255Z,9512.00
2022-07-30T09:06:00.192Z,9996.00
2022-07-30T09:07:00.586Z,10796.00
2022-07-30T09:08:00.198Z,11848.00
2022-07-30T09:09:00.132Z,12756.00
2022-07-30T09:10:00.166Z,13784.00
2022-07-30T09:11:00.157Z,14812.00
2022-07-30T09:12:00.109Z,15840.00
2022-07-30T09:13:00.084Z,16416.00
2022-07-30T09:14:00.097Z,16768.00
2022-07-30T09:15:00.062Z,17024.00
2022-07-30T09:16:00.110Z,17248.00
2022-07-30T09:17:00.393Z,17120.00
2022-07-30T09:18:00.038Z,16736.00
2022-07-30T09:19:00.019Z,16160.00
2022-07-30T09:19:59.994Z,15140.00
2022-07-30T09:21:00.093Z,14004.00
2022-07-30T09:21:59.975Z,12928.00
2022-07-30T09:22:59.951Z,11928.00
2022-07-30T09:24:00.010Z,11032.00
2022-07-30T09:24:59.923Z,10536.00
2022-07-30T09:25:59.913Z,10236.00
2022-07-30T09:27:00.378Z,9820.00
2022-07-30T09:28:00.056Z,9664.00
2022-07-30T09:28:59.985Z,9232.00
2022-07-30T09:29:59.897Z,9156.00
2022-07-30T09:30:59.910Z,8816.00
2022-07-30T09:32:00.152Z,8748.00
2022-07-30T09:32:59.825Z,8592.00
2022-07-30T09:33:59.815Z,8524.00
2022-07-30T09:34:59.865Z,8440.00
2022-07-30T09:35:59.786Z,8300.00
2022-07-30T09:36:59.767Z,8136.00
2022-07-30T09:38:03.129Z,8028.00
2022-07-30T09:39:00.746Z,8020.00
2022-07-30T09:39:59.962Z,8068.00
2022-07-30T09:41:04.864Z,8056.00
2022-07-30T09:42:00.987Z,8196.00
2022-07-30T09:43:00.823Z,8384.00
2022-07-30T09:44:00.498Z,8616.00
2022-07-30T09:44:59.697Z,8808.00
2022-07-30T09:45:59.689Z,9068.00
2022-07-30T09:46:59.642Z,9484.00
2022-07-30T09:47:59.644Z,10084.00
2022-07-30T09:48:59.647Z,10800.00
2022-07-30T09:50:02.866Z,11496.00
2022-07-30T09:51:00.602Z,12128.00
2022-07-30T09:51:59.587Z,12628.00
2022-07-30T09:52:59.602Z,13192.00
2022-07-30T09:54:00.213Z,13348.00
2022-07-30T09:54:59.565Z,13340.00
2022-07-30T09:55:59.594Z,13308.00
2022-07-30T09:56:59.542Z,13220.00
2022-07-30T09:57:59.646Z,12776.00
2022-07-30T09:58:59.507Z,11844.00
2022-07-30T10:00:00.142Z,10912.00
2022-07-30T10:01:00.374Z,10120.00
2022-07-30T10:02:03.843Z,9568.00
2022-07-30T10:03:00.545Z,9200.00
2022-07-30T10:04:00.461Z,9108.00
2022-07-30T10:04:59.580Z,9524.00
2022-07-30T10:05:59.455Z,9848.00
2022-07-30T10:06:59.387Z,10024.00
2022-07-30T10:07:59.370Z,10408.00
2022-07-30T10:08:59.386Z,11020.00
2022-07-30T10:09:59.330Z,12000.00
2022-07-30T10:10:59.381Z,13084.00
2022-07-30T10:12:02.411Z,13776.00
2022-07-30T10:12:59.309Z,14044.00
2022-07-30T10:13:59.338Z,14108.00
2022-07-30T10:14:59.273Z,13924.00
2022-07-30T10:15:59.324Z,13580.00
2022-07-30T10:16:59.242Z,13368.00
2022-07-30T10:17:59.255Z,13116.00
2022-07-30T10:18:59.284Z,13008.00
2022-07-30T10:19:59.207Z,13332.00
2022-07-30T10:20:59.193Z,14044.00
2022-07-30T10:21:59.440Z,13620.00
2022-07-30T10:22:59.221Z,13412.00
2022-07-30T10:24:00.010Z,13172.00
2022-07-30T10:24:59.186Z,13184.00
2022-07-30T10:25:59.126Z,13296.00
2022-07-30T10:26:59.509Z,13360.00
2022-07-30T10:27:59.147Z,13168.00
2022-07-30T10:28:59.194Z,12444.00
2022-07-30T10:29:59.130Z,11772.00
2022-07-30T10:30:59.894Z,10936.00
2022-07-30T10:31:59.070Z,10356.00
2022-07-30T10:33:00.156Z,10040.00
2022-07-30T10:33:59.099Z,9984.00
2022-07-30T10:34:59.011Z,10244.00
2022-07-30T10:35:59.009Z,10120.00
2022-07-30T10:36:58.987Z,9544.00
2022-07-30T10:37:58.990Z,8864.00
2022-07-30T10:38:59.032Z,8232.00
2022-07-30T10:39:59.069Z,8100.00
2022-07-30T10:40:58.992Z,8080.00
2022-07-30T10:41:58.977Z,8192.00
2022-07-30T10:43:00.177Z,8612.00
2022-07-30T10:43:59.014Z,8600.00
2022-07-30T10:44:59.085Z,8388.00
2022-07-30T10:45:58.985Z,8244.00
2022-07-30T10:46:59.421Z,8132.00
2022-07-30T10:47:59.879Z,8012.00
2022-07-30T10:48:58.897Z,7988.00
2022-07-30T10:49:58.867Z,8172.00
2022-07-30T10:50:58.817Z,8476.00
2022-07-30T10:51:58.787Z,8496.00
2022-07-30T10:52:58.796Z,8484.00
2022-07-30T10:53:58.817Z,8368.00
2022-07-30T10:54:58.819Z,8352.00
2022-07-30T10:55:59.957Z,8544.00
2022-07-30T10:56:59.005Z,8832.00
2022-07-30T10:57:58.729Z,9584.00
2022-07-30T10:58:58.729Z,10884.00
2022-07-30T10:59:58.708Z,12612.00
2022-07-30T11:00:58.806Z,14420.00
2022-07-30T11:01:58.742Z,15220.00
2022-07-30T11:02:58.738Z,15272.00
2022-07-30T11:03:58.799Z,15184.00
2022-07-30T11:04:59.563Z,15000.00
2022-07-30T11:05:58.610Z,14632.00
2022-07-30T11:06:58.622Z,14160.00
2022-07-30T11:07:58.634Z,13876.00
2022-07-30T11:08:58.586Z,13632.00
2022-07-30T11:10:08.815Z,13428.00
2022-07-30T11:10:59.571Z,13480.00
2022-07-30T11:12:15.980Z,13760.00
2022-07-30T11:13:00.233Z,14500.00
2022-07-30T11:13:58.699Z,15228.00
2022-07-30T11:14:58.534Z,16032.00
2022-07-30T11:16:00.598Z,16352.00
2022-07-30T11:16:58.603Z,16512.00
2022-07-30T11:17:58.457Z,16480.00
2022-07-30T11:19:27.435Z,16416.00
2022-07-30T11:19:59.448Z,16160.00
2022-07-30T11:20:58.562Z,16000.00
2022-07-30T11:21:59.905Z,16160.00
2022-07-30T11:22:58.390Z,16224.00
2022-07-30T11:23:58.387Z,16224.00
2022-07-30T11:24:58.445Z,16384.00
2022-07-30T11:25:58.601Z,16736.00
2022-07-30T11:26:58.340Z,17024.00
2022-07-30T11:27:58.422Z,16928.00
2022-07-30T11:28:58.308Z,16704.00
2022-07-30T11:29:58.363Z,16288.00
2022-07-30T11:30:58.285Z,15872.00
2022-07-30T11:32:00.203Z,15352.00
2022-07-30T11:32:58.325Z,15044.00
2022-07-30T11:33:58.323Z,14780.00
2022-07-30T11:34:59.286Z,14800.00
2022-07-30T11:35:58.335Z,14912.00
2022-07-30T11:36:58.215Z,15208.00
2022-07-30T11:37:58.247Z,15840.00
2022-07-30T11:39:06.795Z,16256.00
2022-07-30T11:39:59.272Z,16800.00
2022-07-30T11:40:58.197Z,17280.00
2022-07-30T11:41:58.141Z,17856.00
2022-07-30T11:42:58.164Z,18176.00
2022-07-30T11:43:58.209Z,18240.00
2022-07-30T11:45:02.277Z,18304.00
2022-07-30T11:45:59.099Z,18592.00
2022-07-30T11:46:59.146Z,18848.00
2022-07-30T11:47:58.138Z,18848.00
2022-07-30T11:48:58.227Z,18784.00
2022-07-30T11:49:58.089Z,18880.00
2022-07-30T11:51:03.433Z,19040.00
2022-07-30T11:51:59.355Z,19296.00
2022-07-30T11:52:58.068Z,19328.00
2022-07-30T11:53:58.023Z,19264.00
2022-07-30T11:54:57.978Z,19296.00
2022-07-30T11:55:57.998Z,19424.00
2022-07-30T11:57:03.673Z,19648.00
2022-07-30T11:57:58.963Z,19904.00
2022-07-30T11:58:57.964Z,19840.00
2022-07-30T11:59:57.951Z,19648.00
2022-07-30T12:00:57.955Z,19456.00
2022-07-30T12:01:57.932Z,19296.00
2022-07-30T12:02:59.857Z,19104.00
2022-07-30T12:03:57.865Z,18784.00
2022-07-30T12:04:58.947Z,18496.00
2022-07-30T12:05:57.852Z,18272.00
2022-07-30T12:06:57.872Z,17920.00
2022-07-30T12:07:57.973Z,17344.00
2022-07-30T12:08:58.899Z,16512.00
2022-07-30T12:09:57.821Z,15680.00
2022-07-30T12:10:57.791Z,14864.00
2022-07-30T12:11:57.762Z,14408.00
2022-07-30T12:12:57.809Z,14492.00
2022-07-30T12:13:57.745Z,14680.00
2022-07-30T12:15:01.765Z,14888.00
2022-07-30T12:15:57.753Z,14976.00
2022-07-30T12:16:57.845Z,14988.00
2022-07-30T12:18:24.212Z,15020.00
2022-07-30T12:18:58.725Z,15424.00